Justice — WDG2184 — position and weather

sailwx.info

Track history (hours):
 
Tides and Currents Weather Stations Pressure Air Temp Water Temp Dewpoint Dewpoint Depression Visibility Wind Speed Wind Dir Waves Ship Positions

Justice

Owner: Boston Towing & Transportation, Boston, MA. More information available from US FCC via Universal Licensing System and Coast Guard Vessel Documentation Center.

Last reported at 2017-Jan-20 05:33 UTC. Time now 2017-Jan-20 05:53 UTC.
Position N 42°23' W 071°04'.

Length 30 m; draft 5.8 m.

Type: Tug. MMSI: 367513010.

Date/timePositionNaut miles runAvg speedWind from/ knotsBaromVisibWave heightAir tempDewpointWater temp
2017-Jan-20 05:33N 42°23' W 071°04'1 0.6
2017-Jan-20 04:33N 42°23' W 071°03'0 0.3
2017-Jan-20 03:33N 42°23' W 071°03'0 0.0
2017-Jan-20 02:33N 42°23' W 071°03'0 0.5
2017-Jan-20 01:33N 42°23' W 071°03'2 1.5
2017-Jan-20 00:33N 42°22' W 071°03'1 1.2
2017-Jan-19 23:33N 42°23' W 071°03'0 0.0
2017-Jan-19 22:33N 42°23' W 071°03'0 0.0
2017-Jan-19 21:33N 42°23' W 071°03'0 0.0
2017-Jan-19 20:33N 42°23' W 071°03'1 0.5
2017-Jan-19 19:33N 42°23' W 071°02'1 0.5
2017-Jan-19 18:29N 42°23' W 071°03'0 0.0
2017-Jan-19 17:32N 42°23' W 071°03'2 1.6
2017-Jan-19 16:33N 42°21' W 071°02'6 6.1
2017-Jan-19 15:33N 42°17' W 070°56'4 3.6
2017-Jan-19 14:33N 42°14' W 070°58'1 1.5
2017-Jan-19 13:33N 42°15' W 070°57'5 4.9
2017-Jan-19 12:33N 42°19' W 070°53'5 5.4
2017-Jan-19 11:33N 42°20' W 071°00'9 9.2
2017-Jan-19 10:33N 42°19' W 070°48'9 9.5
2017-Jan-19 09:33N 42°14' W 070°37'4 0.2
2017-Jan-18 14:12N 42°17' W 070°41'5 7.7
2017-Jan-18 13:33N 42°19' W 070°47'9 8.7
2017-Jan-18 12:33N 42°20' W 070°59'4 3.7
2017-Jan-18 11:33N 42°23' W 071°01'1 0.9
2017-Jan-18 10:33N 42°23' W 071°03'0 0.0
2017-Jan-18 09:33N 42°23' W 071°03'1 0.8
2017-Jan-18 08:33N 42°23' W 071°03'2 1.8
2017-Jan-18 07:34N 42°22' W 071°02'1 1.2
2017-Jan-18 06:33N 42°23' W 071°03'0 0.0
2017-Jan-18 05:33N 42°23' W 071°03'0 0.0
2017-Jan-18 04:33N 42°23' W 071°03'0 0.0
2017-Jan-18 03:33N 42°23' W 071°03'0 0.0
2017-Jan-18 02:33N 42°23' W 071°03'0 0.0
2017-Jan-18 01:33N 42°23' W 071°03'0 0.0
2017-Jan-18 00:33N 42°23' W 071°03'0 0.0
2017-Jan-17 23:33N 42°23' W 071°03'0 0.0
2017-Jan-17 22:33N 42°23' W 071°03'0 0.0
2017-Jan-17 21:33N 42°23' W 071°03'0 0.0
2017-Jan-17 20:33N 42°23' W 071°03'0 0.0
2017-Jan-17 19:33N 42°23' W 071°03'0 0.0
2017-Jan-17 18:34N 42°23' W 071°03'0 0.1
2017-Jan-17 17:34N 42°23' W 071°03'1 0.9
2017-Jan-17 16:32N 42°23' W 071°02'1 1.0
2017-Jan-17 15:33N 42°24' W 071°01'2 1.7
2017-Jan-17 14:33N 42°23' W 071°03'0 0.0
2017-Jan-17 13:33N 42°23' W 071°03'0 0.0
2017-Jan-17 12:34N 42°23' W 071°03'1 1.3
2017-Jan-17 11:33N 42°24' W 071°01'1 1.3
2017-Jan-17 10:33N 42°23' W 071°03'0 0.0
2017-Jan-17 09:33N 42°23' W 071°03'0 0.0
2017-Jan-17 08:33N 42°23' W 071°03'0 0.0
2017-Jan-17 07:33N 42°23' W 071°03'0 0.0
2017-Jan-17 06:33N 42°23' W 071°03'0 0.0
2017-Jan-17 05:32N 42°23' W 071°03'0 0.0
2017-Jan-17 04:33N 42°23' W 071°03'0 0.0
2017-Jan-17 03:33N 42°23' W 071°03'0 0.0
2017-Jan-17 02:33N 42°23' W 071°03'0 0.0
2017-Jan-17 01:33N 42°23' W 071°03'0 0.0
2017-Jan-17 00:33N 42°23' W 071°03'0 0.0
2017-Jan-16 23:33N 42°23' W 071°03'0 0.0
2017-Jan-16 22:33N 42°23' W 071°03'0 0.0
2017-Jan-16 21:33N 42°23' W 071°03'0 0.0
2017-Jan-16 20:33N 42°23' W 071°03'0 0.0
2017-Jan-16 19:33N 42°23' W 071°03'3 3.3
2017-Jan-16 18:34N 42°20' W 071°00'3 3.3
2017-Jan-16 17:33N 42°23' W 071°02'3 2.5
2017-Jan-16 16:33N 42°21' W 071°01'0 0.0
2017-Jan-16 15:33N 42°21' W 071°01'2 1.8
2017-Jan-16 14:33N 42°22' W 071°03'1 0.7
2017-Jan-16 13:33N 42°23' W 071°03'1 0.7
2017-Jan-16 12:33N 42°23' W 071°02'1 0.8
2017-Jan-16 11:34N 42°23' W 071°03'0 0.1
2017-Jan-16 10:33N 42°23' W 071°03'0 0.0
2017-Jan-16 09:33N 42°23' W 071°03'0 0.0
2017-Jan-16 08:33N 42°23' W 071°03'0 0.0
2017-Jan-16 07:33N 42°23' W 071°03'0 0.0
2017-Jan-16 06:33N 42°23' W 071°03'0 0.0
2017-Jan-16 05:33N 42°23' W 071°03'1 1.4
2017-Jan-16 04:33N 42°24' W 071°01'1 0.8
2017-Jan-16 03:33N 42°23' W 071°02'1 0.7
2017-Jan-16 02:34N 42°24' W 071°01'1 1.4
2017-Jan-16 01:33N 42°23' W 071°03'0 0.0
2017-Jan-16 00:33N 42°23' W 071°03'0 0.0
2017-Jan-15 23:33N 42°23' W 071°03'0 0.0
2017-Jan-15 22:33N 42°23' W 071°03'0 0.0
2017-Jan-15 21:33N 42°23' W 071°03'0 0.0
2017-Jan-15 20:33N 42°23' W 071°03'0 0.0
2017-Jan-15 19:33N 42°23' W 071°03'0 0.0
2017-Jan-15 18:33N 42°23' W 071°03'3 2.5
2017-Jan-15 17:33N 42°21' W 071°01'2 2.1
2017-Jan-15 16:33N 42°20' W 070°58'5 4.9
2017-Jan-15 15:33N 42°23' W 071°03'2 1.9
2017-Jan-15 14:33N 42°21' W 071°02'1 1.3
2017-Jan-15 13:33N 42°23' W 071°03'0 0.0
2017-Jan-15 12:33N 42°23' W 071°03'0 0.0
2017-Jan-15 11:33N 42°23' W 071°03'0 0.0
2017-Jan-15 10:33N 42°23' W 071°03'0 0.0
2017-Jan-15 09:33N 42°23' W 071°03'1 0.8
2017-Jan-15 08:33N 42°23' W 071°03'1 0.8
2017-Jan-15 07:33N 42°23' W 071°03'0 0.0
2017-Jan-15 06:33N 42°23' W 071°03'2 1.6
2017-Jan-15 05:33N 42°21' W 071°02'1 0.8
2017-Jan-15 04:33N 42°21' W 071°01'0 0.0
2017-Jan-15 03:33N 42°21' W 071°01'2 2.4
2017-Jan-15 02:33N 42°23' W 071°03'0 0.0
2017-Jan-15 01:26N 42°23' W 071°03'0 0.0
2017-Jan-15 00:33N 42°23' W 071°03'0 0.0
2017-Jan-14 23:33N 42°23' W 071°03'0 0.0
2017-Jan-14 22:33N 42°23' W 071°03'1 0.5
2017-Jan-14 21:33N 42°23' W 071°02'1 0.7
2017-Jan-14 20:33N 42°23' W 071°01'0 0.5
2017-Jan-14 19:33N 42°23' W 071°02'1 0.7
2017-Jan-14 18:33N 42°23' W 071°03'0 0.0
2017-Jan-14 17:34N 42°23' W 071°03'2 2.5
2017-Jan-14 16:33N 42°21' W 071°01'0 0.1
2017-Jan-14 15:33N 42°21' W 071°01'10 9.6
2017-Jan-14 14:33N 42°19' W 070°48'18 0.7
2017-Jan-13 12:31N 42°06' W 070°33'9 9.6
2017-Jan-13 11:33N 42°14' W 070°39'9 8.7
2017-Jan-13 10:33N 42°19' W 070°48'9 8.6
2017-Jan-13 09:33N 42°20' W 070°60'3 3.3
2017-Jan-13 08:33N 42°23' W 071°03'0 0.0
2017-Jan-13 07:33N 42°23' W 071°03'0 0.0
2017-Jan-13 06:33N 42°23' W 071°03'0 0.0
2017-Jan-13 05:33N 42°23' W 071°03'0 0.0
2017-Jan-13 04:33N 42°23' W 071°03'4 4.1
2017-Jan-13 03:33N 42°20' W 070°58'0 0.0
2017-Jan-13 02:33N 42°20' W 070°58'0 0.1
2017-Jan-13 01:33N 42°20' W 070°58'0 0.1
2017-Jan-13 00:33N 42°20' W 070°58'4 4.2
2017-Jan-12 23:33N 42°23' W 071°03'1 0.8
2017-Jan-12 22:33N 42°23' W 071°02'1 0.6
2017-Jan-12 21:34N 42°23' W 071°02'0 0.4
2017-Jan-12 20:33N 42°23' W 071°03'0 0.0
2017-Jan-12 19:33N 42°23' W 071°03'0 0.0
2017-Jan-12 18:33N 42°23' W 071°03'0 0.1
2017-Jan-12 17:32N 42°23' W 071°03'0 0.0
2017-Jan-12 16:33N 42°23' W 071°03'4 3.7
2017-Jan-12 15:33N 42°20' W 070°59'5 4.7
2017-Jan-12 14:33N 42°16' W 070°56'2 2.1
2017-Jan-12 13:33N 42°15' W 070°58'5 5.3
2017-Jan-12 12:33N 42°20' W 070°56'6 5.9
2017-Jan-12 11:33N 42°23' W 071°03'0 0.0
2017-Jan-12 10:33N 42°23' W 071°03'0 0.0
2017-Jan-12 09:33N 42°23' W 071°03'0 0.0
2017-Jan-12 08:33N 42°23' W 071°03'0 0.0
2017-Jan-12 07:33N 42°23' W 071°03'0 0.0
2017-Jan-12 06:33N 42°23' W 071°03'0 0.0
2017-Jan-12 05:33N 42°23' W 071°03'2 2.5
2017-Jan-12 04:33N 42°21' W 071°01'3 2.7
2017-Jan-12 03:33N 42°23' W 071°03'0 0.4
2017-Jan-12 02:33N 42°23' W 071°02'1 0.5
2017-Jan-12 01:33N 42°23' W 071°02'2 1.8
2017-Jan-12 00:33N 42°21' W 071°02'2 1.6
2017-Jan-11 23:33N 42°23' W 071°03'0 0.0
2017-Jan-11 22:33N 42°23' W 071°03'0 0.0
2017-Jan-11 21:33N 42°23' W 071°03'4 4.2
2017-Jan-11 20:33N 42°20' W 070°58'6 5.6
2017-Jan-11 19:33N 42°15' W 070°58'0 0.4
2017-Jan-11 18:33N 42°15' W 070°58'4 4.3
2017-Jan-11 17:33N 42°19' W 070°55'4 4.3
2017-Jan-11 16:33N 42°21' W 071°01'1 0.7
2017-Jan-11 15:33N 42°21' W 071°01'0 0.0
2017-Jan-11 14:33N 42°21' W 071°01'0 0.4
2017-Jan-11 13:33N 42°21' W 071°01'2 2.5
2017-Jan-11 12:33N 42°23' W 071°02'1 1.1
2017-Jan-11 11:33N 42°24' W 071°01'2 1.7
2017-Jan-11 10:33N 42°23' W 071°03'0 0.0
2017-Jan-11 09:33N 42°23' W 071°03'0 0.0
2017-Jan-11 08:33N 42°23' W 071°03'0 0.0
2017-Jan-11 07:33N 42°23' W 071°03'0 0.0
2017-Jan-11 06:33N 42°23' W 071°03'0 0.0
2017-Jan-11 05:33N 42°23' W 071°03'0 0.0
2017-Jan-11 04:33N 42°23' W 071°03'0 0.0
2017-Jan-11 03:33N 42°23' W 071°03'0 0.0
2017-Jan-11 02:33N 42°23' W 071°03'1 1.0
2017-Jan-11 01:33N 42°23' W 071°04'0 0.1
2017-Jan-11 00:33N 42°23' W 071°04'4 4.2
2017-Jan-10 23:33N 42°20' W 071°00'3 2.9
2017-Jan-10 22:33N 42°22' W 071°03'1 0.6
2017-Jan-10 21:34N 42°23' W 071°03'0 0.0
2017-Jan-10 20:33N 42°23' W 071°03'0 0.0
2017-Jan-10 19:33N 42°23' W 071°03'0 0.0
2017-Jan-10 18:33N 42°23' W 071°03'0 0.0
2017-Jan-10 17:33N 42°23' W 071°03'0 0.0
2017-Jan-10 16:33N 42°23' W 071°03'2 2.5
2017-Jan-10 15:33N 42°21' W 071°01'3 2.6
2017-Jan-10 14:33N 42°21' W 070°58'0 0.3
2017-Jan-10 13:33N 42°21' W 070°58'1 0.7
2017-Jan-10 12:33N 42°20' W 070°57'6 5.5
2017-Jan-10 11:33N 42°15' W 070°58'3 3.0
2017-Jan-10 10:33N 42°17' W 070°56'8 7.8
2017-Jan-10 09:34N 42°23' W 071°03'2 1.7
2017-Jan-10 08:33N 42°24' W 071°01'2 1.8
2017-Jan-10 07:33N 42°23' W 071°03'0 0.0
2017-Jan-10 06:33N 42°23' W 071°03'  
Track history (hours):
 
Tides and Currents Weather Stations Pressure Air Temp Water Temp Dewpoint Dewpoint Depression Visibility Wind Speed Wind Dir Waves Ship Positions

Justice

Owner: Boston Towing & Transportation, Boston, MA. More information available from US FCC via Universal Licensing System and Coast Guard Vessel Documentation Center.

Last reported at 2017-Jan-20 05:33 UTC. Time now 2017-Jan-20 05:53 UTC.
Position N 42°23' W 071°04'.

Length 30 m; draft 5.8 m.

Type: Tug. MMSI: 367513010.

Date/timePositionNaut miles runAvg speedWind from/ knotsBaromVisibWave heightAir tempDewpointWater temp
2017-Jan-20 05:33N 42°23' W 071°04'1 0.6
2017-Jan-20 04:33N 42°23' W 071°03'0 0.3
2017-Jan-20 03:33N 42°23' W 071°03'0 0.0
2017-Jan-20 02:33N 42°23' W 071°03'0 0.5
2017-Jan-20 01:33N 42°23' W 071°03'2 1.5
2017-Jan-20 00:33N 42°22' W 071°03'1 1.2
2017-Jan-19 23:33N 42°23' W 071°03'0 0.0
2017-Jan-19 22:33N 42°23' W 071°03'0 0.0
2017-Jan-19 21:33N 42°23' W 071°03'0 0.0
2017-Jan-19 20:33N 42°23' W 071°03'1 0.5
2017-Jan-19 19:33N 42°23' W 071°02'1 0.5
2017-Jan-19 18:29N 42°23' W 071°03'0 0.0
2017-Jan-19 17:32N 42°23' W 071°03'2 1.6
2017-Jan-19 16:33N 42°21' W 071°02'6 6.1
2017-Jan-19 15:33N 42°17' W 070°56'4 3.6
2017-Jan-19 14:33N 42°14' W 070°58'1 1.5
2017-Jan-19 13:33N 42°15' W 070°57'5 4.9
2017-Jan-19 12:33N 42°19' W 070°53'5 5.4
2017-Jan-19 11:33N 42°20' W 071°00'9 9.2
2017-Jan-19 10:33N 42°19' W 070°48'9 9.5
2017-Jan-19 09:33N 42°14' W 070°37'4 0.2
2017-Jan-18 14:12N 42°17' W 070°41'5 7.7
2017-Jan-18 13:33N 42°19' W 070°47'9 8.7
2017-Jan-18 12:33N 42°20' W 070°59'4 3.7
2017-Jan-18 11:33N 42°23' W 071°01'1 0.9
2017-Jan-18 10:33N 42°23' W 071°03'0 0.0
2017-Jan-18 09:33N 42°23' W 071°03'1 0.8
2017-Jan-18 08:33N 42°23' W 071°03'2 1.8
2017-Jan-18 07:34N 42°22' W 071°02'1 1.2
2017-Jan-18 06:33N 42°23' W 071°03'0 0.0
2017-Jan-18 05:33N 42°23' W 071°03'0 0.0
2017-Jan-18 04:33N 42°23' W 071°03'0 0.0
2017-Jan-18 03:33N 42°23' W 071°03'0 0.0
2017-Jan-18 02:33N 42°23' W 071°03'0 0.0
2017-Jan-18 01:33N 42°23' W 071°03'0 0.0
2017-Jan-18 00:33N 42°23' W 071°03'0 0.0
2017-Jan-17 23:33N 42°23' W 071°03'0 0.0
2017-Jan-17 22:33N 42°23' W 071°03'0 0.0
2017-Jan-17 21:33N 42°23' W 071°03'0 0.0
2017-Jan-17 20:33N 42°23' W 071°03'0 0.0
2017-Jan-17 19:33N 42°23' W 071°03'0 0.0
2017-Jan-17 18:34N 42°23' W 071°03'0 0.1
2017-Jan-17 17:34N 42°23' W 071°03'1 0.9
2017-Jan-17 16:32N 42°23' W 071°02'1 1.0
2017-Jan-17 15:33N 42°24' W 071°01'2 1.7
2017-Jan-17 14:33N 42°23' W 071°03'0 0.0
2017-Jan-17 13:33N 42°23' W 071°03'0 0.0
2017-Jan-17 12:34N 42°23' W 071°03'1 1.3
2017-Jan-17 11:33N 42°24' W 071°01'1 1.3
2017-Jan-17 10:33N 42°23' W 071°03'0 0.0
2017-Jan-17 09:33N 42°23' W 071°03'0 0.0
2017-Jan-17 08:33N 42°23' W 071°03'0 0.0
2017-Jan-17 07:33N 42°23' W 071°03'0 0.0
2017-Jan-17 06:33N 42°23' W 071°03'0 0.0
2017-Jan-17 05:32N 42°23' W 071°03'0 0.0
2017-Jan-17 04:33N 42°23' W 071°03'0 0.0
2017-Jan-17 03:33N 42°23' W 071°03'0 0.0
2017-Jan-17 02:33N 42°23' W 071°03'0 0.0
2017-Jan-17 01:33N 42°23' W 071°03'0 0.0
2017-Jan-17 00:33N 42°23' W 071°03'0 0.0
2017-Jan-16 23:33N 42°23' W 071°03'0 0.0
2017-Jan-16 22:33N 42°23' W 071°03'0 0.0
2017-Jan-16 21:33N 42°23' W 071°03'0 0.0
2017-Jan-16 20:33N 42°23' W 071°03'0 0.0
2017-Jan-16 19:33N 42°23' W 071°03'3 3.3
2017-Jan-16 18:34N 42°20' W 071°00'3 3.3
2017-Jan-16 17:33N 42°23' W 071°02'3 2.5
2017-Jan-16 16:33N 42°21' W 071°01'0 0.0
2017-Jan-16 15:33N 42°21' W 071°01'2 1.8
2017-Jan-16 14:33N 42°22' W 071°03'1 0.7
2017-Jan-16 13:33N 42°23' W 071°03'1 0.7
2017-Jan-16 12:33N 42°23' W 071°02'1 0.8
2017-Jan-16 11:34N 42°23' W 071°03'0 0.1
2017-Jan-16 10:33N 42°23' W 071°03'0 0.0
2017-Jan-16 09:33N 42°23' W 071°03'0 0.0
2017-Jan-16 08:33N 42°23' W 071°03'0 0.0
2017-Jan-16 07:33N 42°23' W 071°03'0 0.0
2017-Jan-16 06:33N 42°23' W 071°03'0 0.0
2017-Jan-16 05:33N 42°23' W 071°03'1 1.4
2017-Jan-16 04:33N 42°24' W 071°01'1 0.8
2017-Jan-16 03:33N 42°23' W 071°02'1 0.7
2017-Jan-16 02:34N 42°24' W 071°01'1 1.4
2017-Jan-16 01:33N 42°23' W 071°03'0 0.0
2017-Jan-16 00:33N 42°23' W 071°03'0 0.0
2017-Jan-15 23:33N 42°23' W 071°03'0 0.0
2017-Jan-15 22:33N 42°23' W 071°03'0 0.0
2017-Jan-15 21:33N 42°23' W 071°03'0 0.0
2017-Jan-15 20:33N 42°23' W 071°03'0 0.0
2017-Jan-15 19:33N 42°23' W 071°03'0 0.0
2017-Jan-15 18:33N 42°23' W 071°03'3 2.5
2017-Jan-15 17:33N 42°21' W 071°01'2 2.1
2017-Jan-15 16:33N 42°20' W 070°58'5 4.9
2017-Jan-15 15:33N 42°23' W 071°03'2 1.9
2017-Jan-15 14:33N 42°21' W 071°02'1 1.3
2017-Jan-15 13:33N 42°23' W 071°03'0 0.0
2017-Jan-15 12:33N 42°23' W 071°03'0 0.0
2017-Jan-15 11:33N 42°23' W 071°03'0 0.0
2017-Jan-15 10:33N 42°23' W 071°03'0 0.0
2017-Jan-15 09:33N 42°23' W 071°03'1 0.8
2017-Jan-15 08:33N 42°23' W 071°03'1 0.8
2017-Jan-15 07:33N 42°23' W 071°03'0 0.0
2017-Jan-15 06:33N 42°23' W 071°03'2 1.6
2017-Jan-15 05:33N 42°21' W 071°02'1 0.8
2017-Jan-15 04:33N 42°21' W 071°01'0 0.0
2017-Jan-15 03:33N 42°21' W 071°01'2 2.4
2017-Jan-15 02:33N 42°23' W 071°03'0 0.0
2017-Jan-15 01:26N 42°23' W 071°03'0 0.0
2017-Jan-15 00:33N 42°23' W 071°03'0 0.0
2017-Jan-14 23:33N 42°23' W 071°03'0 0.0
2017-Jan-14 22:33N 42°23' W 071°03'1 0.5
2017-Jan-14 21:33N 42°23' W 071°02'1 0.7
2017-Jan-14 20:33N 42°23' W 071°01'0 0.5
2017-Jan-14 19:33N 42°23' W 071°02'1 0.7
2017-Jan-14 18:33N 42°23' W 071°03'0 0.0
2017-Jan-14 17:34N 42°23' W 071°03'2 2.5
2017-Jan-14 16:33N 42°21' W 071°01'0 0.1
2017-Jan-14 15:33N 42°21' W 071°01'10 9.6
2017-Jan-14 14:33N 42°19' W 070°48'18 0.7
2017-Jan-13 12:31N 42°06' W 070°33'9 9.6
2017-Jan-13 11:33N 42°14' W 070°39'9 8.7
2017-Jan-13 10:33N 42°19' W 070°48'9 8.6
2017-Jan-13 09:33N 42°20' W 070°60'3 3.3
2017-Jan-13 08:33N 42°23' W 071°03'0 0.0
2017-Jan-13 07:33N 42°23' W 071°03'0 0.0
2017-Jan-13 06:33N 42°23' W 071°03'0 0.0
2017-Jan-13 05:33N 42°23' W 071°03'0 0.0
2017-Jan-13 04:33N 42°23' W 071°03'4 4.1
2017-Jan-13 03:33N 42°20' W 070°58'0 0.0
2017-Jan-13 02:33N 42°20' W 070°58'0 0.1
2017-Jan-13 01:33N 42°20' W 070°58'0 0.1
2017-Jan-13 00:33N 42°20' W 070°58'4 4.2
2017-Jan-12 23:33N 42°23' W 071°03'1 0.8
2017-Jan-12 22:33N 42°23' W 071°02'1 0.6
2017-Jan-12 21:34N 42°23' W 071°02'0 0.4
2017-Jan-12 20:33N 42°23' W 071°03'0 0.0
2017-Jan-12 19:33N 42°23' W 071°03'0 0.0
2017-Jan-12 18:33N 42°23' W 071°03'0 0.1
2017-Jan-12 17:32N 42°23' W 071°03'0 0.0
2017-Jan-12 16:33N 42°23' W 071°03'4 3.7
2017-Jan-12 15:33N 42°20' W 070°59'5 4.7
2017-Jan-12 14:33N 42°16' W 070°56'2 2.1
2017-Jan-12 13:33N 42°15' W 070°58'5 5.3
2017-Jan-12 12:33N 42°20' W 070°56'6 5.9
2017-Jan-12 11:33N 42°23' W 071°03'0 0.0
2017-Jan-12 10:33N 42°23' W 071°03'0 0.0
2017-Jan-12 09:33N 42°23' W 071°03'0 0.0
2017-Jan-12 08:33N 42°23' W 071°03'0 0.0
2017-Jan-12 07:33N 42°23' W 071°03'0 0.0
2017-Jan-12 06:33N 42°23' W 071°03'0 0.0
2017-Jan-12 05:33N 42°23' W 071°03'2 2.5
2017-Jan-12 04:33N 42°21' W 071°01'3 2.7
2017-Jan-12 03:33N 42°23' W 071°03'0 0.4
2017-Jan-12 02:33N 42°23' W 071°02'1 0.5
2017-Jan-12 01:33N 42°23' W 071°02'2 1.8
2017-Jan-12 00:33N 42°21' W 071°02'2 1.6
2017-Jan-11 23:33N 42°23' W 071°03'0 0.0
2017-Jan-11 22:33N 42°23' W 071°03'0 0.0
2017-Jan-11 21:33N 42°23' W 071°03'4 4.2
2017-Jan-11 20:33N 42°20' W 070°58'6 5.6
2017-Jan-11 19:33N 42°15' W 070°58'0 0.4
2017-Jan-11 18:33N 42°15' W 070°58'4 4.3
2017-Jan-11 17:33N 42°19' W 070°55'4 4.3
2017-Jan-11 16:33N 42°21' W 071°01'1 0.7
2017-Jan-11 15:33N 42°21' W 071°01'0 0.0
2017-Jan-11 14:33N 42°21' W 071°01'0 0.4
2017-Jan-11 13:33N 42°21' W 071°01'2 2.5
2017-Jan-11 12:33N 42°23' W 071°02'1 1.1
2017-Jan-11 11:33N 42°24' W 071°01'2 1.7
2017-Jan-11 10:33N 42°23' W 071°03'0 0.0
2017-Jan-11 09:33N 42°23' W 071°03'0 0.0
2017-Jan-11 08:33N 42°23' W 071°03'0 0.0
2017-Jan-11 07:33N 42°23' W 071°03'0 0.0
2017-Jan-11 06:33N 42°23' W 071°03'0 0.0
2017-Jan-11 05:33N 42°23' W 071°03'0 0.0
2017-Jan-11 04:33N 42°23' W 071°03'0 0.0
2017-Jan-11 03:33N 42°23' W 071°03'0 0.0
2017-Jan-11 02:33N 42°23' W 071°03'1 1.0
2017-Jan-11 01:33N 42°23' W 071°04'0 0.1
2017-Jan-11 00:33N 42°23' W 071°04'4 4.2
2017-Jan-10 23:33N 42°20' W 071°00'3 2.9
2017-Jan-10 22:33N 42°22' W 071°03'1 0.6
2017-Jan-10 21:34N 42°23' W 071°03'0 0.0
2017-Jan-10 20:33N 42°23' W 071°03'0 0.0
2017-Jan-10 19:33N 42°23' W 071°03'0 0.0
2017-Jan-10 18:33N 42°23' W 071°03'0 0.0
2017-Jan-10 17:33N 42°23' W 071°03'0 0.0
2017-Jan-10 16:33N 42°23' W 071°03'2 2.5
2017-Jan-10 15:33N 42°21' W 071°01'3 2.6
2017-Jan-10 14:33N 42°21' W 070°58'0 0.3
2017-Jan-10 13:33N 42°21' W 070°58'1 0.7
2017-Jan-10 12:33N 42°20' W 070°57'6 5.5
2017-Jan-10 11:33N 42°15' W 070°58'3 3.0
2017-Jan-10 10:33N 42°17' W 070°56'8 7.8
2017-Jan-10 09:34N 42°23' W 071°03'2 1.7
2017-Jan-10 08:33N 42°24' W 071°01'2 1.8
2017-Jan-10 07:33N 42°23' W 071°03'0 0.0
2017-Jan-10 06:33N 42°23' W 071°03'  

Dump ship's entire track history